createdAt,value
2017-12-01T00:00:09.880Z,58.57
2017-12-01T00:02:38.315Z,53.77
2017-12-01T00:05:06.763Z,55.10
2017-12-01T00:07:35.152Z,61.33
2017-12-01T00:10:04.999Z,60.53
2017-12-01T00:12:33.363Z,55.80
2017-12-01T00:15:02.248Z,52.90
2017-12-01T00:17:30.627Z,59.90
2017-12-01T00:19:59.014Z,59.50
2017-12-01T00:22:27.372Z,58.77
2017-12-01T00:24:55.734Z,58.60
2017-12-01T00:27:25.283Z,55.10
2017-12-01T00:29:53.630Z,53.80
2017-12-01T00:32:22.118Z,56.50
2017-12-01T00:34:52.201Z,61.63
2017-12-01T00:37:21.395Z,53.63
2017-12-01T00:39:49.426Z,59.67
2017-12-01T00:42:17.841Z,53.70
2017-12-01T00:44:46.216Z,70.10
2017-12-01T00:47:14.770Z,55.47
2017-12-01T00:49:43.196Z,48.80
2017-12-01T00:52:11.582Z,56.20
2017-12-01T00:54:39.914Z,60.00
2017-12-01T00:57:08.865Z,54.57
2017-12-01T00:59:37.053Z,62.23
2017-12-01T01:02:05.393Z,66.17
2017-12-01T01:04:33.758Z,58.43
2017-12-01T01:07:02.106Z,55.57
2017-12-01T01:09:31.628Z,56.23
2017-12-01T01:12:00.004Z,57.13
2017-12-01T01:14:28.354Z,62.10
2017-12-01T01:16:58.095Z,61.10
2017-12-01T01:19:26.459Z,59.60
2017-12-01T01:21:54.767Z,60.87
2017-12-01T01:24:22.927Z,63.83
2017-12-01T01:26:51.250Z,59.73
2017-12-01T01:29:20.358Z,63.63
2017-12-01T01:31:48.921Z,71.43
2017-12-01T01:34:17.246Z,59.57
2017-12-01T01:36:45.597Z,64.07
2017-12-01T01:39:13.980Z,62.27
2017-12-01T01:41:42.962Z,55.37
2017-12-01T01:44:11.472Z,64.23
2017-12-01T01:46:42.184Z,61.60
2017-12-01T01:49:10.318Z,61.13
2017-12-01T01:51:38.103Z,62.90
2017-12-01T01:54:06.964Z,61.57
2017-12-01T01:56:35.463Z,62.43
2017-12-01T01:59:03.334Z,61.97
2017-12-01T02:01:31.145Z,65.13
2017-12-01T02:03:59.697Z,58.83
2017-12-01T02:06:28.026Z,60.30
2017-12-01T02:08:55.694Z,60.77
2017-12-01T02:11:23.898Z,61.07
2017-12-01T02:13:51.985Z,61.17
2017-12-01T02:16:20.313Z,68.47
2017-12-01T02:18:48.366Z,59.40
2017-12-01T02:21:16.055Z,61.77
2017-12-01T02:23:43.726Z,59.97
2017-12-01T02:26:11.539Z,58.30
2017-12-01T02:28:39.207Z,59.47
2017-12-01T02:31:06.968Z,69.73
2017-12-01T02:33:36.483Z,57.77
2017-12-01T02:36:04.187Z,63.10
2017-12-01T02:38:32.228Z,62.50
2017-12-01T02:40:59.930Z,67.43
2017-12-01T02:43:27.619Z,75.77
2017-12-01T02:45:55.320Z,58.13
2017-12-01T02:48:22.994Z,65.13
2017-12-01T02:50:50.662Z,58.67
2017-12-01T02:53:19.197Z,64.43
2017-12-01T02:55:47.626Z,58.20
2017-12-01T02:58:15.302Z,56.47
2017-12-01T03:00:43.203Z,50.57
2017-12-01T03:03:11.654Z,67.50
2017-12-01T03:05:39.396Z,57.17
2017-12-01T03:08:07.883Z,58.90
2017-12-01T03:10:35.550Z,55.23
2017-12-01T03:13:03.221Z,58.07
2017-12-01T03:15:31.926Z,46.77
2017-12-01T03:18:00.446Z,52.57
2017-12-01T03:20:28.214Z,49.70
2017-12-01T03:22:55.902Z,44.27
2017-12-01T03:25:23.710Z,41.50
2017-12-01T03:27:51.480Z,45.37
2017-12-01T03:30:19.523Z,50.67
2017-12-01T03:32:47.406Z,46.17
2017-12-01T03:35:15.107Z,53.47
2017-12-01T03:37:46.061Z,48.23
2017-12-01T03:40:13.768Z,55.90
2017-12-01T03:42:42.156Z,52.83
2017-12-01T03:45:11.726Z,48.43
2017-12-01T03:47:39.386Z,48.33
2017-12-01T03:50:07.809Z,51.37
2017-12-01T03:52:35.644Z,44.10
2017-12-01T03:55:03.685Z,46.43
2017-12-01T03:57:32.967Z,53.93
2017-12-01T04:00:01.467Z,46.47
2017-12-01T04:02:29.125Z,46.50
2017-12-01T04:04:57.216Z,51.20
2017-12-01T04:07:24.888Z,48.10
2017-12-01T04:09:52.644Z,48.00
2017-12-01T04:12:20.321Z,50.37
2017-12-01T04:14:48.914Z,47.00
2017-12-01T04:17:16.575Z,41.70
2017-12-01T04:19:45.204Z,46.70
2017-12-01T04:22:12.985Z,40.80
2017-12-01T04:24:40.844Z,41.37
2017-12-01T04:27:10.607Z,43.73
2017-12-01T04:29:38.318Z,43.90
2017-12-01T04:32:06.278Z,37.60
2017-12-01T04:34:33.930Z,40.30
2017-12-01T04:37:01.603Z,40.53
2017-12-01T04:39:29.268Z,39.03
2017-12-01T04:41:56.937Z,37.87
2017-12-01T04:44:24.779Z,38.60
2017-12-01T04:46:52.479Z,33.77
2017-12-01T04:49:20.133Z,34.27
2017-12-01T04:51:47.817Z,36.77
2017-12-01T04:54:15.833Z,36.30
2017-12-01T04:56:43.497Z,36.00
2017-12-01T04:59:11.199Z,35.10
2017-12-01T05:01:38.872Z,34.70
2017-12-01T05:04:06.544Z,37.90
2017-12-01T05:06:34.329Z,39.13
2017-12-01T05:09:02.074Z,40.27
2017-12-01T05:11:29.750Z,40.47
2017-12-01T05:13:57.426Z,40.47
2017-12-01T05:16:25.094Z,39.67
2017-12-01T05:18:52.824Z,42.83
2017-12-01T05:21:20.489Z,41.40
2017-12-01T05:23:48.453Z,45.73
2017-12-01T05:26:16.122Z,44.30
2017-12-01T05:28:43.974Z,39.97
2017-12-01T05:31:11.630Z,48.07
2017-12-01T05:33:39.303Z,48.87
2017-12-01T05:36:06.991Z,51.47
2017-12-01T05:38:34.682Z,50.60
2017-12-01T05:41:03.407Z,48.90
2017-12-01T05:43:31.085Z,51.43
2017-12-01T05:45:58.921Z,53.90
2017-12-01T05:48:26.586Z,57.07
2017-12-01T05:50:54.255Z,49.80
2017-12-01T05:53:22.069Z,58.50
2017-12-01T05:55:49.782Z,53.00
2017-12-01T05:58:17.581Z,53.00
2017-12-01T06:00:45.283Z,48.00
2017-12-01T06:03:12.965Z,55.47
2017-12-01T06:05:40.679Z,51.90
2017-12-01T06:08:09.128Z,52.33
2017-12-01T06:10:36.805Z,55.53
2017-12-01T06:13:05.274Z,51.57
2017-12-01T06:15:32.943Z,48.57
2017-12-01T06:18:01.428Z,52.73
2017-12-01T06:20:29.093Z,57.53
2017-12-01T06:22:57.539Z,50.80
2017-12-01T06:25:25.197Z,51.87
2017-12-01T06:27:52.878Z,48.73
2017-12-01T06:30:20.547Z,45.53
2017-12-01T06:32:48.277Z,44.40
2017-12-01T06:35:15.962Z,50.67
2017-12-01T06:37:44.399Z,48.17
2017-12-01T06:40:12.213Z,49.50
2017-12-01T06:42:39.908Z,49.23
2017-12-01T06:45:07.783Z,47.03
2017-12-01T06:47:36.060Z,47.37
2017-12-01T06:50:03.806Z,48.70
2017-12-01T06:52:31.549Z,60.63
2017-12-01T06:54:59.324Z,49.30
2017-12-01T06:57:28.978Z,48.83
2017-12-01T06:59:57.157Z,48.37
2017-12-01T07:02:25.162Z,51.03
2017-12-01T07:04:52.845Z,50.00
2017-12-01T07:07:20.832Z,50.57
2017-12-01T07:09:49.170Z,54.83
2017-12-01T07:12:17.492Z,45.50
2017-12-01T07:14:45.834Z,50.00
2017-12-01T07:17:14.172Z,47.70
2017-12-01T07:19:42.520Z,44.27
2017-12-01T07:22:10.988Z,48.93
2017-12-01T07:24:39.188Z,51.83
2017-12-01T07:27:11.044Z,46.93
2017-12-01T07:29:39.647Z,50.33
2017-12-01T07:32:07.989Z,49.50
2017-12-01T07:34:37.090Z,44.27
2017-12-01T07:37:05.423Z,49.43
2017-12-01T07:39:33.764Z,48.20
2017-12-01T07:42:01.921Z,44.80
2017-12-01T07:44:30.978Z,47.57
2017-12-01T07:46:59.505Z,48.50
2017-12-01T07:49:27.627Z,48.77
2017-12-01T07:51:55.780Z,52.00
2017-12-01T07:54:23.913Z,54.43
2017-12-01T07:56:52.294Z,49.50
2017-12-01T07:59:20.435Z,47.80
2017-12-01T08:01:49.355Z,48.90
2017-12-01T08:04:17.500Z,52.97
2017-12-01T08:06:46.433Z,53.30
2017-12-01T08:09:14.599Z,58.80
2017-12-01T08:11:42.741Z,59.43
2017-12-01T08:14:10.927Z,63.20
2017-12-01T08:16:50.442Z,60.07
2017-12-01T08:19:22.285Z,59.30
2017-12-01T08:22:01.457Z,61.10
2017-12-01T08:24:40.755Z,60.50
2017-12-01T08:27:09.671Z,56.80
2017-12-01T08:29:37.827Z,61.00
2017-12-01T08:32:06.055Z,56.73
2017-12-01T08:34:34.423Z,59.27
2017-12-01T08:37:02.760Z,56.30
2017-12-01T08:39:31.098Z,57.23
2017-12-01T08:42:00.195Z,59.27
2017-12-01T08:44:28.524Z,61.30
2017-12-01T08:46:56.847Z,55.23
2017-12-01T08:49:25.947Z,58.97
2017-12-01T08:51:53.975Z,58.90
2017-12-01T08:57:16.554Z,57.77
2017-12-01T08:59:44.595Z,61.60
2017-12-01T09:02:13.044Z,63.27
2017-12-01T09:04:41.382Z,66.50
2017-12-01T09:07:09.722Z,62.70
2017-12-01T09:09:38.045Z,64.23
2017-12-01T09:12:06.378Z,62.80
2017-12-01T09:14:34.708Z,68.13
2017-12-01T09:17:02.877Z,62.83
2017-12-01T09:19:31.202Z,69.97
2017-12-01T09:21:59.534Z,65.77
2017-12-01T09:24:27.550Z,67.77
2017-12-01T09:26:55.390Z,73.10
2017-12-01T09:29:23.723Z,72.27
2017-12-01T09:31:52.063Z,75.73
2017-12-01T09:34:20.418Z,67.30
2017-12-01T09:36:48.766Z,69.13
2017-12-01T09:39:17.090Z,70.87
2017-12-01T09:41:44.802Z,79.20
2017-12-01T09:44:12.972Z,62.00
2017-12-01T09:46:40.789Z,67.73
2017-12-01T09:49:09.895Z,63.87
2017-12-01T09:51:39.153Z,62.70
2017-12-01T09:54:07.706Z,65.10
2017-12-01T09:56:35.933Z,59.90
2017-12-01T09:59:04.260Z,60.93
2017-12-01T10:01:32.696Z,54.50
2017-12-01T10:04:01.274Z,60.20
2017-12-01T10:06:29.611Z,57.97
2017-12-01T10:08:57.942Z,60.87
2017-12-01T10:11:26.343Z,64.27
2017-12-01T10:13:54.820Z,63.00
2017-12-01T10:16:23.189Z,62.10
2017-12-01T10:18:51.510Z,65.80
2017-12-01T10:21:19.851Z,63.87
2017-12-01T10:23:48.173Z,59.93
2017-12-01T10:26:17.281Z,53.23
2017-12-01T10:28:45.314Z,59.40
2017-12-01T10:31:13.648Z,56.37
2017-12-01T10:33:41.984Z,56.63
2017-12-01T10:36:10.108Z,49.57
2017-12-01T10:38:38.094Z,56.93
2017-12-01T10:41:06.335Z,48.63
2017-12-01T10:43:33.825Z,68.47
2017-12-01T10:46:01.968Z,57.40
2017-12-01T10:48:31.080Z,57.00
2017-12-01T10:50:59.415Z,57.07
2017-12-01T10:53:28.157Z,57.63
2017-12-01T10:55:56.693Z,59.67
2017-12-01T10:58:25.526Z,57.17
2017-12-01T11:00:53.882Z,55.00
2017-12-01T11:03:22.278Z,50.73
2017-12-01T11:05:50.610Z,61.40
2017-12-01T11:08:18.938Z,56.83
2017-12-01T11:10:47.314Z,52.97
2017-12-01T11:13:15.656Z,51.83
2017-12-01T11:15:44.005Z,47.93
2017-12-01T11:18:12.405Z,53.33
2017-12-01T11:20:40.761Z,47.80
2017-12-01T11:23:09.448Z,53.50
2017-12-01T11:25:37.868Z,50.37
2017-12-01T11:28:06.306Z,50.17
2017-12-01T11:30:34.630Z,51.93
2017-12-01T11:33:02.962Z,43.20
2017-12-01T11:35:31.294Z,44.90
2017-12-01T11:38:00.402Z,49.07
2017-12-01T11:40:28.787Z,51.90
2017-12-01T11:42:57.127Z,46.50
2017-12-01T11:45:25.466Z,47.40
2017-12-01T11:47:53.814Z,55.77
2017-12-01T11:50:22.498Z,51.37
2017-12-01T11:52:50.501Z,52.70
2017-12-01T11:55:18.199Z,57.23
2017-12-01T11:57:45.869Z,55.40
2017-12-01T12:00:13.548Z,57.63
2017-12-01T12:02:41.541Z,58.50
2017-12-01T12:05:09.552Z,64.00
2017-12-01T12:07:37.898Z,57.93
2017-12-01T12:10:06.241Z,56.27
2017-12-01T12:12:34.330Z,45.97
2017-12-01T12:15:02.059Z,41.33
2017-12-01T12:17:30.050Z,42.93
2017-12-01T12:19:58.000Z,40.70
2017-12-01T12:22:26.002Z,40.70
2017-12-01T12:24:53.670Z,47.70
2017-12-01T12:27:21.786Z,40.80
2017-12-01T12:29:49.786Z,45.70
2017-12-01T12:32:17.482Z,41.57
2017-12-01T12:34:45.192Z,45.90
2017-12-01T12:37:14.656Z,49.00
2017-12-01T12:39:42.745Z,51.73
2017-12-01T12:42:10.407Z,46.47
2017-12-01T12:44:38.419Z,45.70
2017-12-01T12:47:06.238Z,46.90
2017-12-01T12:49:34.606Z,48.83
2017-12-01T12:52:02.082Z,42.23
2017-12-01T12:54:29.899Z,38.93
2017-12-01T12:56:58.524Z,34.07
2017-12-01T12:59:26.372Z,38.00
2017-12-01T13:01:54.037Z,39.70
2017-12-01T13:04:21.539Z,36.57
2017-12-01T13:06:49.022Z,43.37
2017-12-01T13:09:16.551Z,41.40
2017-12-01T13:11:44.216Z,41.30
2017-12-01T13:14:11.920Z,45.10
2017-12-01T13:16:39.921Z,37.80
2017-12-01T13:19:07.621Z,36.63
2017-12-01T13:21:35.293Z,43.83
2017-12-01T13:24:02.981Z,37.20
2017-12-01T13:26:30.668Z,36.63
2017-12-01T13:28:58.325Z,35.70
2017-12-01T13:31:25.993Z,34.33
2017-12-01T13:33:53.680Z,41.50
2017-12-01T13:36:21.679Z,38.37
2017-12-01T13:38:49.357Z,37.53
2017-12-01T13:41:17.021Z,40.53
2017-12-01T13:43:44.849Z,41.93
2017-12-01T13:46:12.523Z,38.13
2017-12-01T13:48:40.220Z,40.13
2017-12-01T13:51:08.209Z,43.57
2017-12-01T13:53:36.544Z,42.13
2017-12-01T13:56:04.038Z,41.67
2017-12-01T13:58:32.383Z,49.00
2017-12-01T14:01:00.842Z,43.80
2017-12-01T14:03:29.169Z,41.73
2017-12-01T14:05:57.530Z,42.27
2017-12-01T14:08:25.881Z,43.37
2017-12-01T14:10:54.216Z,42.83
2017-12-01T14:13:22.581Z,48.80
2017-12-01T14:15:51.091Z,45.57
2017-12-01T14:18:19.413Z,46.50
2017-12-01T14:20:47.753Z,42.13
2017-12-01T14:23:16.111Z,44.90
2017-12-01T14:25:44.455Z,43.30
2017-12-01T14:28:13.568Z,42.37
2017-12-01T14:30:41.901Z,43.67
2017-12-01T14:33:10.249Z,45.60
2017-12-01T14:35:38.902Z,44.13
2017-12-01T14:38:07.254Z,43.30
2017-12-01T14:40:36.341Z,41.37
2017-12-01T14:43:04.725Z,43.10
2017-12-01T14:45:33.159Z,41.97
2017-12-01T14:48:01.481Z,39.00
2017-12-01T14:50:29.821Z,40.40
2017-12-01T14:52:58.171Z,39.97
2017-12-01T14:55:26.489Z,36.70
2017-12-01T14:57:54.864Z,38.80
2017-12-01T15:00:23.187Z,35.00
2017-12-01T15:02:51.550Z,35.10
2017-12-01T15:05:19.871Z,32.80
2017-12-01T15:07:48.498Z,41.30
2017-12-01T15:10:16.835Z,36.30
2017-12-01T15:12:46.531Z,31.60
2017-12-01T15:15:14.871Z,37.63
2017-12-01T15:17:43.201Z,37.67
2017-12-01T15:20:11.542Z,37.10
2017-12-01T15:22:39.862Z,36.00
2017-12-01T15:25:08.214Z,34.83
2017-12-01T15:27:36.854Z,37.80
2017-12-01T15:30:05.378Z,38.10
2017-12-01T15:32:33.538Z,43.70
2017-12-01T15:35:01.873Z,36.90
2017-12-01T15:37:30.219Z,42.07
2017-12-01T15:39:58.396Z,36.40
2017-12-01T15:42:26.563Z,40.43
2017-12-01T15:44:55.475Z,37.70
2017-12-01T15:47:23.682Z,37.80
2017-12-01T15:49:51.840Z,38.47
2017-12-01T15:52:20.169Z,38.30
2017-12-01T15:54:48.499Z,39.70
2017-12-01T15:57:16.840Z,36.70
2017-12-01T15:59:45.257Z,39.37
2017-12-01T16:02:13.207Z,43.77
2017-12-01T16:04:42.479Z,40.87
2017-12-01T16:07:10.668Z,41.03
2017-12-01T16:09:38.490Z,39.13
2017-12-01T16:12:06.176Z,51.97
2017-12-01T16:14:33.937Z,45.30
2017-12-01T16:17:02.308Z,45.60
2017-12-01T16:19:30.005Z,46.00
2017-12-01T16:21:57.690Z,47.03
2017-12-01T16:24:25.361Z,47.50
2017-12-01T16:26:53.970Z,51.80
2017-12-01T16:29:21.659Z,41.10
2017-12-01T16:31:49.328Z,50.07
2017-12-01T16:34:17.670Z,47.10
2017-12-01T16:36:45.675Z,48.47
2017-12-01T16:39:13.672Z,47.33
2017-12-01T16:41:42.434Z,45.40
2017-12-01T16:44:10.785Z,47.73
2017-12-01T16:46:38.785Z,42.90
2017-12-01T16:49:07.163Z,41.10
2017-12-01T16:51:35.596Z,42.93
2017-12-01T16:54:03.615Z,42.20
2017-12-01T16:56:31.895Z,47.43
2017-12-01T16:58:59.925Z,46.70
2017-12-01T17:01:27.605Z,39.47
2017-12-01T17:03:55.086Z,48.67
2017-12-01T17:06:22.779Z,41.90
2017-12-01T17:08:50.462Z,42.77
2017-12-01T17:11:18.131Z,45.27
2017-12-01T17:13:45.805Z,43.37
2017-12-01T17:16:13.492Z,40.73
2017-12-01T17:18:41.183Z,48.90
2017-12-01T17:21:09.024Z,42.63
2017-12-01T17:23:36.698Z,43.43
2017-12-01T17:26:04.400Z,41.60
2017-12-01T17:28:32.579Z,43.17
2017-12-01T17:31:01.666Z,41.70
2017-12-01T17:33:29.342Z,41.90
2017-12-01T17:35:57.778Z,42.97
2017-12-01T17:38:25.783Z,44.10
2017-12-01T17:40:54.228Z,43.13
2017-12-01T17:43:21.903Z,43.30
2017-12-01T17:45:49.638Z,41.37
2017-12-01T17:48:17.319Z,34.40
2017-12-01T17:50:45.013Z,39.33
2017-12-01T17:53:12.698Z,47.17
2017-12-01T17:55:40.445Z,40.70
2017-12-01T17:58:08.445Z,40.93
2017-12-01T18:00:36.115Z,41.57
2017-12-01T18:03:03.773Z,37.70
2017-12-01T18:05:31.793Z,38.37
2017-12-01T18:08:00.281Z,41.17
2017-12-01T18:10:27.966Z,40.30
2017-12-01T18:12:56.116Z,43.43
2017-12-01T18:15:24.996Z,36.47
2017-12-01T18:17:53.322Z,40.00
2017-12-01T18:20:21.048Z,45.50
2017-12-01T18:22:48.942Z,44.60
2017-12-01T18:25:16.952Z,44.10
2017-12-01T18:27:44.663Z,42.77
2017-12-01T18:30:12.370Z,38.80
2017-12-01T18:32:40.560Z,44.60
2017-12-01T18:35:08.578Z,44.27
2017-12-01T18:37:36.700Z,42.20
2017-12-01T18:40:04.385Z,49.47
2017-12-01T18:42:32.062Z,42.13
2017-12-01T18:45:00.101Z,41.87
2017-12-01T18:47:27.598Z,44.27
2017-12-01T18:49:55.633Z,39.77
2017-12-01T18:52:23.641Z,46.57
2017-12-01T18:54:52.055Z,43.47
2017-12-01T18:57:19.777Z,40.07
2017-12-01T18:59:48.390Z,46.17
2017-12-01T19:02:16.057Z,45.50
2017-12-01T19:04:44.633Z,47.90
2017-12-01T19:07:12.558Z,47.27
2017-12-01T19:09:40.229Z,44.30
2017-12-01T19:12:07.931Z,48.80
2017-12-01T19:14:36.349Z,48.43
2017-12-01T19:17:04.015Z,50.87
2017-12-01T19:19:32.082Z,49.10
2017-12-01T19:21:59.557Z,44.20
2017-12-01T19:24:27.346Z,48.63
2017-12-01T19:26:55.442Z,48.70
2017-12-01T19:29:23.616Z,50.40
2017-12-01T19:31:51.749Z,47.87
2017-12-01T19:34:19.886Z,49.77
2017-12-01T19:36:47.554Z,50.60
2017-12-01T19:39:15.955Z,46.83
2017-12-01T19:41:43.727Z,52.87
2017-12-01T19:44:11.400Z,53.63
2017-12-01T19:46:39.119Z,54.63
2017-12-01T19:49:06.804Z,50.00
2017-12-01T19:51:36.427Z,49.63
2017-12-01T19:54:05.556Z,45.83
2017-12-01T19:56:33.251Z,51.07
2017-12-01T19:59:00.920Z,53.20
2017-12-01T20:01:30.494Z,52.17
2017-12-01T20:03:58.540Z,52.60
2017-12-01T20:06:26.268Z,51.63
2017-12-01T20:08:53.946Z,57.50
2017-12-01T20:11:21.654Z,51.20
2017-12-01T20:13:49.327Z,50.23
2017-12-01T20:16:17.055Z,48.50
2017-12-01T20:18:45.387Z,52.00
2017-12-01T20:21:13.091Z,55.20
2017-12-01T20:23:41.499Z,58.73
2017-12-01T20:26:08.989Z,49.33
2017-12-01T20:28:37.044Z,55.93
2017-12-01T20:31:04.718Z,49.00
2017-12-01T20:33:32.851Z,52.87
2017-12-01T20:36:01.188Z,54.63
2017-12-01T20:38:28.873Z,51.07
2017-12-01T20:40:56.542Z,55.10
2017-12-01T20:43:24.272Z,53.77
2017-12-01T20:45:52.374Z,53.27
2017-12-01T20:48:20.076Z,48.70
2017-12-01T20:50:48.921Z,47.30
2017-12-01T20:53:18.221Z,54.87
2017-12-01T20:55:45.930Z,56.27
2017-12-01T20:58:13.767Z,46.03
2017-12-01T21:00:41.436Z,50.20
2017-12-01T21:03:09.701Z,46.40
2017-12-01T21:05:37.466Z,50.07
2017-12-01T21:08:05.168Z,55.80
2017-12-01T21:10:33.625Z,47.93
2017-12-01T21:13:01.299Z,51.10
2017-12-01T21:15:30.402Z,55.07
2017-12-01T21:17:59.015Z,48.70
2017-12-01T21:20:26.738Z,47.70
2017-12-01T21:22:55.333Z,52.40
2017-12-01T21:25:23.374Z,54.43
2017-12-01T21:27:51.914Z,54.20
2017-12-01T21:30:19.678Z,54.30
2017-12-01T21:32:47.607Z,52.73
2017-12-01T21:35:15.461Z,59.03
2017-12-01T21:37:43.784Z,54.07
2017-12-01T21:40:11.933Z,49.10
2017-12-01T21:42:39.947Z,45.30
2017-12-01T21:45:08.115Z,56.90
2017-12-01T21:47:35.960Z,50.77
2017-12-01T21:50:04.033Z,56.53
2017-12-01T21:52:32.882Z,56.30
2017-12-01T21:55:01.850Z,61.83
2017-12-01T21:57:31.180Z,59.10
2017-12-01T21:59:59.557Z,57.17
2017-12-01T22:02:27.970Z,59.60
2017-12-01T22:04:56.343Z,62.77
2017-12-01T22:07:24.502Z,54.63
2017-12-01T22:09:52.863Z,62.90
2017-12-01T22:12:21.190Z,60.73
2017-12-01T22:14:49.357Z,62.07
2017-12-01T22:17:17.526Z,62.47
2017-12-01T22:19:45.878Z,64.40
2017-12-01T22:22:14.287Z,60.97
2017-12-01T22:24:42.644Z,60.40
2017-12-01T22:27:10.811Z,63.73
2017-12-01T22:29:39.287Z,66.23
2017-12-01T22:32:07.452Z,61.03
2017-12-01T22:34:36.580Z,65.63
2017-12-01T22:37:05.694Z,59.70
2017-12-01T22:39:34.113Z,62.47
2017-12-01T22:42:02.474Z,65.83
2017-12-01T22:44:30.832Z,65.30
2017-12-01T22:46:58.991Z,60.60
2017-12-01T22:49:26.834Z,66.83
2017-12-01T22:51:55.188Z,58.87
2017-12-01T22:54:23.725Z,61.37
2017-12-01T22:56:51.721Z,59.63
2017-12-01T22:59:20.066Z,55.93
2017-12-01T23:01:48.394Z,67.23
2017-12-01T23:04:16.839Z,55.90
2017-12-01T23:06:45.042Z,59.37
2017-12-01T23:09:13.406Z,60.47
2017-12-01T23:11:41.266Z,55.53
2017-12-01T23:14:09.620Z,58.00
2017-12-01T23:16:37.635Z,57.63
2017-12-01T23:19:06.263Z,54.10
2017-12-01T23:21:34.601Z,51.27
2017-12-01T23:24:03.728Z,64.00
2017-12-01T23:26:32.179Z,60.93
2017-12-01T23:29:00.552Z,54.87
2017-12-01T23:31:28.910Z,61.43
2017-12-01T23:33:57.434Z,54.60
2017-12-01T23:36:25.773Z,62.90
2017-12-01T23:38:54.890Z,52.73
2017-12-01T23:41:23.224Z,54.60
2017-12-01T23:43:51.583Z,61.13
2017-12-01T23:46:19.270Z,65.10
2017-12-01T23:48:47.856Z,59.13
2017-12-01T23:51:16.987Z,69.97
2017-12-01T23:53:45.366Z,61.43
2017-12-01T23:56:13.245Z,63.10
2017-12-01T23:58:41.659Z,61.60
